createdAt,value
2018-03-11T00:01:12.498Z,21.40
2018-03-11T00:03:40.787Z,19.83
2018-03-11T00:06:09.117Z,21.63
2018-03-11T00:08:37.401Z,19.73
2018-03-11T00:11:05.688Z,22.00
2018-03-11T00:13:33.974Z,21.00
2018-03-11T00:16:02.289Z,23.07
2018-03-11T00:18:30.584Z,20.80
2018-03-11T00:20:58.930Z,22.33
2018-03-11T00:23:28.080Z,21.20
2018-03-11T00:25:56.369Z,19.97
2018-03-11T00:28:24.680Z,20.67
2018-03-11T00:30:53.032Z,20.47
2018-03-11T00:33:21.332Z,20.80
2018-03-11T00:35:49.660Z,18.27
2018-03-11T00:38:18.130Z,20.60
2018-03-11T00:40:46.433Z,20.80
2018-03-11T00:43:14.809Z,24.00
2018-03-11T00:45:43.250Z,19.07
2018-03-11T00:48:11.547Z,20.87
2018-03-11T00:50:39.863Z,17.63
2018-03-11T00:53:08.165Z,19.80
2018-03-11T00:55:36.501Z,23.03
2018-03-11T00:58:04.816Z,19.70
2018-03-11T01:00:33.128Z,21.53
2018-03-11T01:03:01.419Z,18.20
2018-03-11T01:05:29.733Z,20.67
2018-03-11T01:07:58.041Z,18.13
2018-03-11T01:10:26.338Z,20.57
2018-03-11T01:12:54.635Z,19.73
2018-03-11T01:15:22.946Z,20.43
2018-03-11T01:17:51.238Z,23.23
2018-03-11T01:20:19.561Z,19.37
2018-03-11T01:22:47.874Z,21.50
2018-03-11T01:25:16.198Z,17.97
2018-03-11T01:27:44.537Z,18.27
2018-03-11T01:30:12.834Z,17.90
2018-03-11T01:32:41.122Z,21.37
2018-03-11T01:35:09.417Z,18.07
2018-03-11T01:37:37.704Z,20.27
2018-03-11T01:40:06.000Z,19.90
2018-03-11T01:42:34.293Z,17.17
2018-03-11T01:45:02.586Z,18.40
2018-03-11T01:47:30.898Z,16.93
2018-03-11T01:49:59.253Z,16.57
2018-03-11T01:52:27.552Z,17.23
2018-03-11T01:54:55.856Z,16.03
2018-03-11T01:57:24.153Z,18.20
2018-03-11T01:59:52.441Z,17.63
2018-03-11T02:02:20.726Z,16.80
2018-03-11T02:04:49.006Z,22.40
2018-03-11T02:07:17.136Z,17.50
2018-03-11T02:09:45.432Z,17.53
2018-03-11T02:12:13.732Z,15.03
2018-03-11T02:14:42.022Z,18.30
2018-03-11T02:17:10.317Z,14.90
2018-03-11T02:19:38.597Z,20.10
2018-03-11T02:22:06.879Z,17.53
2018-03-11T02:24:35.166Z,16.43
2018-03-11T02:27:03.462Z,15.20
2018-03-11T02:29:31.757Z,15.33
2018-03-11T02:32:00.063Z,17.00
2018-03-11T02:34:28.363Z,16.10
2018-03-11T02:36:56.681Z,15.40
2018-03-11T02:39:24.971Z,18.27
2018-03-11T02:41:53.267Z,19.83
2018-03-11T02:44:21.589Z,17.13
2018-03-11T02:46:50.066Z,17.27
2018-03-11T02:49:18.381Z,16.67
2018-03-11T02:51:46.670Z,16.50
2018-03-11T02:54:14.978Z,14.03
2018-03-11T02:56:43.272Z,14.77
2018-03-11T02:59:11.581Z,17.63
2018-03-11T03:01:39.940Z,15.13
2018-03-11T03:04:08.463Z,15.40
2018-03-11T03:06:36.790Z,15.80
2018-03-11T03:09:04.610Z,18.17
2018-03-11T03:11:32.898Z,18.13
2018-03-11T03:14:01.205Z,21.43
2018-03-11T11:29:13.688Z,18.40
2018-03-11T11:31:41.848Z,18.20
2018-03-11T11:34:10.174Z,19.70
2018-03-11T11:36:38.527Z,16.53
2018-03-11T11:39:06.845Z,16.83
2018-03-11T11:41:35.163Z,13.63
2018-03-11T11:44:03.474Z,15.20
2018-03-11T11:46:31.788Z,16.77
2018-03-11T11:49:01.004Z,22.47
2018-03-11T11:51:29.146Z,19.23
2018-03-11T11:53:57.472Z,19.30
2018-03-11T11:56:25.809Z,18.40
2018-03-11T11:58:54.171Z,13.33
2018-03-11T12:01:22.491Z,16.37
2018-03-11T12:03:50.787Z,16.87
2018-03-11T12:06:19.111Z,14.43
2018-03-11T12:08:47.442Z,13.77
2018-03-11T12:11:15.774Z,18.27
2018-03-11T12:13:44.081Z,20.90
2018-03-11T12:16:12.427Z,12.70
2018-03-11T12:18:40.754Z,12.40
2018-03-11T12:21:09.113Z,15.87
2018-03-11T12:23:37.445Z,11.07
2018-03-11T12:26:05.779Z,11.40
2018-03-11T12:28:34.104Z,18.03
2018-03-11T12:31:02.502Z,15.67
2018-03-11T12:33:30.655Z,17.37
2018-03-11T12:35:58.963Z,11.67
2018-03-11T12:38:27.280Z,14.13
2018-03-11T12:40:55.579Z,10.87
2018-03-11T12:43:23.893Z,12.07
2018-03-11T12:45:52.198Z,13.20
2018-03-11T12:48:20.530Z,12.30
2018-03-11T12:50:48.855Z,13.23
2018-03-11T12:53:17.192Z,11.53
2018-03-11T12:55:45.522Z,12.73
2018-03-11T12:58:13.859Z,12.07
2018-03-11T13:00:42.382Z,10.60
2018-03-11T13:03:10.725Z,14.13
2018-03-11T13:05:39.023Z,11.53
2018-03-11T13:08:07.377Z,13.77
2018-03-11T13:10:35.785Z,22.63
2018-03-11T13:13:04.088Z,10.60
2018-03-11T13:15:32.406Z,14.77
2018-03-11T13:18:00.726Z,15.70
2018-03-11T13:23:29.504Z,11.37
2018-03-11T13:25:57.918Z,15.27
2018-03-11T13:28:37.668Z,12.90
2018-03-11T13:31:06.040Z,13.60
2018-03-11T13:33:45.866Z,10.43
2018-03-11T13:36:14.206Z,14.10
2018-03-11T13:38:53.865Z,13.47
2018-03-11T13:41:22.216Z,14.33
2018-03-11T13:43:50.551Z,14.73
2018-03-11T13:46:30.156Z,11.77
2018-03-11T13:48:58.494Z,16.57
2018-03-11T13:51:38.235Z,11.87
2018-03-11T13:54:06.568Z,10.20
2018-03-11T13:56:34.859Z,11.27
2018-03-11T13:59:03.205Z,18.67
2018-03-11T14:01:31.547Z,15.07
2018-03-11T14:03:59.996Z,12.03
2018-03-11T14:06:28.340Z,10.17
2018-03-11T14:08:57.007Z,10.70
2018-03-11T14:11:25.351Z,15.57
2018-03-11T14:13:54.008Z,13.80
2018-03-11T14:16:22.450Z,10.07
2018-03-11T14:18:50.924Z,10.23
2018-03-11T14:21:19.421Z,12.30
2018-03-11T14:23:47.756Z,12.73
2018-03-11T14:26:16.094Z,11.40
2018-03-11T14:28:44.460Z,16.40
2018-03-11T14:31:12.776Z,12.83
2018-03-11T14:33:41.113Z,16.20
2018-03-11T14:36:09.567Z,14.97
2018-03-11T14:38:38.778Z,18.83
2018-03-11T14:41:07.459Z,14.97
2018-03-11T14:43:36.253Z,12.60
2018-03-11T14:46:05.591Z,17.63
2018-03-11T14:48:35.002Z,16.70
2018-03-11T14:51:05.150Z,15.60
2018-03-11T14:53:33.547Z,17.93
2018-03-11T14:56:02.579Z,13.77
2018-03-11T14:58:31.016Z,14.50
2018-03-11T15:00:59.709Z,20.13
2018-03-11T15:03:28.082Z,14.40
2018-03-11T15:05:56.392Z,14.20
2018-03-11T15:08:24.773Z,15.73
2018-03-11T15:10:53.998Z,14.27
2018-03-11T15:13:23.377Z,16.10
2018-03-11T15:15:51.820Z,21.57
2018-03-11T15:18:20.275Z,14.17
2018-03-11T15:20:48.577Z,15.87
2018-03-11T15:23:17.178Z,15.03
2018-03-11T15:25:45.541Z,16.40
2018-03-11T15:28:13.850Z,14.53
2018-03-11T15:30:42.233Z,13.57
2018-03-11T15:33:11.112Z,13.57
2018-03-11T15:35:40.532Z,17.00
2018-03-11T15:38:08.998Z,14.00
2018-03-11T15:40:37.580Z,12.73
2018-03-11T15:43:05.781Z,16.67
2018-03-11T15:45:34.105Z,15.80
2018-03-11T15:48:02.453Z,18.00
2018-03-11T15:50:30.773Z,13.53
2018-03-11T15:52:59.115Z,16.60
2018-03-11T15:55:29.209Z,12.47
2018-03-11T15:57:58.512Z,18.43
2018-03-11T16:00:27.360Z,13.43
2018-03-11T16:02:56.591Z,13.83
2018-03-11T16:05:24.909Z,11.40
2018-03-11T16:07:54.210Z,15.07
2018-03-11T16:10:22.626Z,14.03
2018-03-11T16:12:50.797Z,11.10
2018-03-11T16:15:19.126Z,16.13
2018-03-11T16:17:47.451Z,15.63
2018-03-11T16:20:15.913Z,14.67
2018-03-11T16:22:44.274Z,74.33
2018-03-11T16:25:12.608Z,36.93
2018-03-11T16:27:40.975Z,28.07
2018-03-11T16:30:09.311Z,22.50
2018-03-11T16:32:37.695Z,29.23
2018-03-11T16:35:05.837Z,22.47
2018-03-11T16:37:34.489Z,21.77
2018-03-11T16:40:03.669Z,23.17
2018-03-11T16:42:32.381Z,25.73
2018-03-11T16:45:00.848Z,27.33
2018-03-11T16:47:30.079Z,24.90
2018-03-11T16:49:59.169Z,22.50
2018-03-11T16:52:27.520Z,27.90
2018-03-11T16:54:56.868Z,52.23
2018-03-11T16:57:25.979Z,30.47
2018-03-11T16:59:54.639Z,40.27
2018-03-11T17:02:23.088Z,36.63
2018-03-11T17:04:51.408Z,35.00
2018-03-11T17:07:19.733Z,31.23
2018-03-11T17:09:48.827Z,26.97
2018-03-11T17:12:18.030Z,28.80
2018-03-11T17:14:46.442Z,39.67
2018-03-11T17:17:15.525Z,34.70
2018-03-11T17:19:44.982Z,22.27
2018-03-11T17:22:13.399Z,27.07
2018-03-11T17:24:42.522Z,27.00
2018-03-11T17:27:10.698Z,22.33
2018-03-11T17:29:39.039Z,26.40
2018-03-11T17:32:08.619Z,28.37
2018-03-11T17:34:37.143Z,32.93
2018-03-11T17:37:06.048Z,33.50
2018-03-11T17:39:34.721Z,36.80
2018-03-11T17:42:03.273Z,36.17
2018-03-11T17:44:33.202Z,36.70
2018-03-11T17:47:02.417Z,40.13
2018-03-11T17:49:31.751Z,32.87
2018-03-11T17:52:01.656Z,31.07
2018-03-11T17:54:30.209Z,44.37
2018-03-11T17:56:59.455Z,22.03
2018-03-11T17:59:27.994Z,39.00
2018-03-11T18:01:56.398Z,25.70
2018-03-11T18:04:24.957Z,37.13
2018-03-11T18:06:53.552Z,26.87
2018-03-11T18:09:23.613Z,40.33
2018-03-11T18:11:52.045Z,36.20
2018-03-11T18:14:20.884Z,22.03
2018-03-11T18:16:49.973Z,30.30
2018-03-11T18:19:18.493Z,33.93
2018-03-11T18:21:46.856Z,40.43
2018-03-11T18:24:15.479Z,41.30
2018-03-11T18:26:43.994Z,46.93
2018-03-11T18:29:12.589Z,58.17
2018-03-11T18:31:40.897Z,55.17
2018-03-11T18:34:09.337Z,65.07
2018-03-11T18:36:37.782Z,63.27
2018-03-11T18:39:07.108Z,62.50
2018-03-11T18:41:36.686Z,63.07
2018-03-11T18:44:06.758Z,69.00
2018-03-11T18:46:36.059Z,60.33
2018-03-11T18:49:05.562Z,61.10
2018-03-11T18:51:34.773Z,65.50
2018-03-11T18:54:04.596Z,64.90
2018-03-11T18:56:33.235Z,55.33
2018-03-11T18:59:02.797Z,61.80
2018-03-11T19:01:31.668Z,56.50
2018-03-11T19:04:01.049Z,67.97
2018-03-11T19:06:29.987Z,45.53
2018-03-11T19:08:58.924Z,50.87
2018-03-11T19:11:28.364Z,42.80
2018-03-11T19:13:57.749Z,56.43
2018-03-11T19:16:26.188Z,56.63
2018-03-11T19:18:54.891Z,39.33
2018-03-11T19:21:23.571Z,39.47
2018-03-11T19:23:51.904Z,39.77
2018-03-11T19:26:20.433Z,42.43
2018-03-11T19:28:48.793Z,42.00
2018-03-11T19:31:17.473Z,34.20
2018-03-11T19:33:46.766Z,35.80
2018-03-11T19:36:15.173Z,32.77
2018-03-11T19:38:43.612Z,26.17
2018-03-11T19:41:11.905Z,27.20
2018-03-11T19:43:40.250Z,26.40
2018-03-11T19:46:08.801Z,28.03
2018-03-11T19:48:37.185Z,27.17
2018-03-11T19:51:06.511Z,30.63
2018-03-11T19:53:35.478Z,26.00
2018-03-11T19:56:05.475Z,27.07
2018-03-11T19:58:33.935Z,24.33
2018-03-11T20:01:02.289Z,28.73
2018-03-11T20:03:30.709Z,26.60
2018-03-11T20:05:59.234Z,26.37
2018-03-11T20:08:27.591Z,22.73
2018-03-11T20:10:55.970Z,25.27
2018-03-11T20:13:24.312Z,32.37
2018-03-11T20:15:53.732Z,39.13
2018-03-11T20:18:22.337Z,35.10
2018-03-11T20:20:50.662Z,30.53
2018-03-11T20:23:19.746Z,31.43
2018-03-11T20:25:48.047Z,28.80
2018-03-11T20:28:16.371Z,23.43
2018-03-11T20:30:44.778Z,26.50
2018-03-11T20:33:13.083Z,25.87
2018-03-11T20:35:41.406Z,38.67
2018-03-11T20:38:09.756Z,30.03
2018-03-11T20:40:38.051Z,29.53
2018-03-11T20:43:06.396Z,23.83
2018-03-11T20:45:34.755Z,23.30
2018-03-11T20:48:03.083Z,31.83
2018-03-11T20:50:31.450Z,35.50
2018-03-11T20:52:59.887Z,37.13
2018-03-11T20:55:28.185Z,37.00
2018-03-11T20:57:56.492Z,34.30
2018-03-11T21:00:24.824Z,41.03
2018-03-11T21:02:53.241Z,33.87
2018-03-11T21:08:04.261Z,24.73
2018-03-11T21:10:32.577Z,39.70
2018-03-11T21:13:00.923Z,38.87
2018-03-11T21:15:29.378Z,38.60
2018-03-11T21:17:57.682Z,31.10
2018-03-11T21:20:25.998Z,26.43
2018-03-11T21:22:54.320Z,30.47
2018-03-11T21:25:22.647Z,28.63
2018-03-11T21:27:50.944Z,30.60
2018-03-11T21:30:30.482Z,42.77
2018-03-11T21:32:58.817Z,58.43
2018-03-11T21:35:27.156Z,48.20
2018-03-11T21:37:55.473Z,39.97
2018-03-11T21:40:23.799Z,39.00
2018-03-11T21:42:52.104Z,25.43
2018-03-11T21:45:20.426Z,26.33
2018-03-11T21:47:48.723Z,50.27
2018-03-11T21:50:17.026Z,31.27
2018-03-11T21:52:45.355Z,44.07
2018-03-11T21:55:13.735Z,45.73
2018-03-11T21:57:42.027Z,44.13
2018-03-11T22:00:10.360Z,52.73
2018-03-11T22:02:38.650Z,51.80
2018-03-11T22:05:06.994Z,46.17
2018-03-11T22:07:35.371Z,35.97
2018-03-11T22:10:03.704Z,29.20
2018-03-11T22:12:32.034Z,51.87
2018-03-11T22:15:00.324Z,47.23
2018-03-11T22:17:28.613Z,58.07
2018-03-11T22:19:56.908Z,62.63
2018-03-11T22:22:25.278Z,61.43
2018-03-11T22:24:53.570Z,41.23
2018-03-11T22:27:21.870Z,46.23
2018-03-11T22:29:50.202Z,57.90
2018-03-11T22:32:18.550Z,52.67
2018-03-11T22:34:46.869Z,50.13
2018-03-11T22:37:15.163Z,61.40
2018-03-11T22:39:43.468Z,56.93
2018-03-11T22:42:11.792Z,64.83
2018-03-11T22:44:40.124Z,55.20
2018-03-11T22:47:08.469Z,66.13
2018-03-11T22:49:36.780Z,70.80
2018-03-11T22:52:05.128Z,56.57
2018-03-11T22:54:33.433Z,54.50
2018-03-11T22:57:01.796Z,60.13
2018-03-11T22:59:30.109Z,59.53
2018-03-11T23:01:58.460Z,58.40
2018-03-11T23:04:26.788Z,59.30
2018-03-11T23:06:55.095Z,64.33
2018-03-11T23:09:23.378Z,52.90
2018-03-11T23:11:51.720Z,52.90
2018-03-11T23:14:20.033Z,50.33
2018-03-11T23:16:48.326Z,56.70
2018-03-11T23:19:21.643Z,50.10
2018-03-11T23:21:50.126Z,42.53
2018-03-11T23:24:18.443Z,46.87
2018-03-11T23:26:46.733Z,47.57
2018-03-11T23:29:15.062Z,43.53
2018-03-11T23:31:43.360Z,45.57
2018-03-11T23:34:11.678Z,46.83
2018-03-11T23:36:40.017Z,49.60
2018-03-11T23:39:08.329Z,41.87
2018-03-11T23:41:36.672Z,47.63
2018-03-11T23:44:04.969Z,42.37
2018-03-11T23:46:33.275Z,45.37
2018-03-11T23:49:01.594Z,46.43
2018-03-11T23:51:30.069Z,47.27
2018-03-11T23:53:58.357Z,40.77
2018-03-11T23:56:26.659Z,40.83
2018-03-11T23:58:54.954Z,47.60
